sensor_id;sensor_type;location;lat;lon;timestamp;temperature;humidity
74224;SHT31;62585;49.706;18.216;2023-03-23T00:00:06;11.38;68.78
74224;SHT31;62585;49.706;18.216;2023-03-23T00:02:52;11.29;69.15
74224;SHT31;62585;49.706;18.216;2023-03-23T00:05:19;11.32;68.89
74224;SHT31;62585;49.706;18.216;2023-03-23T00:07:45;11.43;68.46
74224;SHT31;62585;49.706;18.216;2023-03-23T00:10:11;11.52;68.09
74224;SHT31;62585;49.706;18.216;2023-03-23T00:12:37;11.79;66.82
74224;SHT31;62585;49.706;18.216;2023-03-23T00:15:03;11.59;67.77
74224;SHT31;62585;49.706;18.216;2023-03-23T00:17:30;11.46;68.09
74224;SHT31;62585;49.706;18.216;2023-03-23T00:19:58;11.42;68.40
74224;SHT31;62585;49.706;18.216;2023-03-23T00:22:28;11.46;68.24
74224;SHT31;62585;49.706;18.216;2023-03-23T00:24:54;11.46;68.12
74224;SHT31;62585;49.706;18.216;2023-03-23T00:27:20;11.52;67.83
74224;SHT31;62585;49.706;18.216;2023-03-23T00:29:50;11.39;68.35
74224;SHT31;62585;49.706;18.216;2023-03-23T00:32:20;11.19;69.24
74224;SHT31;62585;49.706;18.216;2023-03-23T00:34:53;11.00;70.05
74224;SHT31;62585;49.706;18.216;2023-03-23T00:37:19;10.83;70.82
74224;SHT31;62585;49.706;18.216;2023-03-23T00:39:45;10.53;71.75
74224;SHT31;62585;49.706;18.216;2023-03-23T00:42:15;10.57;71.60
74224;SHT31;62585;49.706;18.216;2023-03-23T00:44:42;10.49;71.71
74224;SHT31;62585;49.706;18.216;2023-03-23T00:47:10;10.45;72.07
74224;SHT31;62585;49.706;18.216;2023-03-23T00:49:36;10.45;71.99
74224;SHT31;62585;49.706;18.216;2023-03-23T00:52:04;10.49;71.84
74224;SHT31;62585;49.706;18.216;2023-03-23T00:54:30;10.53;71.93
74224;SHT31;62585;49.706;18.216;2023-03-23T00:56:56;10.48;72.17
74224;SHT31;62585;49.706;18.216;2023-03-23T00:59:22;10.43;72.20
74224;SHT31;62585;49.706;18.216;2023-03-23T01:01:49;10.45;72.10
74224;SHT31;62585;49.706;18.216;2023-03-23T01:04:15;10.43;72.24
74224;SHT31;62585;49.706;18.216;2023-03-23T01:06:42;10.46;72.18
74224;SHT31;62585;49.706;18.216;2023-03-23T01:09:14;10.46;71.98
74224;SHT31;62585;49.706;18.216;2023-03-23T01:11:43;10.52;71.80
74224;SHT31;62585;49.706;18.216;2023-03-23T01:14:10;10.57;71.78
74224;SHT31;62585;49.706;18.216;2023-03-23T01:16:36;10.61;71.41
74224;SHT31;62585;49.706;18.216;2023-03-23T01:19:02;10.64;71.31
74224;SHT31;62585;49.706;18.216;2023-03-23T01:21:28;10.61;71.29
74224;SHT31;62585;49.706;18.216;2023-03-23T01:23:53;10.63;71.42
74224;SHT31;62585;49.706;18.216;2023-03-23T01:26:22;10.63;71.14
74224;SHT31;62585;49.706;18.216;2023-03-23T01:28:48;10.67;71.32
74224;SHT31;62585;49.706;18.216;2023-03-23T01:31:16;10.70;71.14
74224;SHT31;62585;49.706;18.216;2023-03-23T01:33:43;10.69;71.06
74224;SHT31;62585;49.706;18.216;2023-03-23T01:36:21;10.84;70.48
74224;SHT31;62585;49.706;18.216;2023-03-23T01:38:48;11.03;69.69
74224;SHT31;62585;49.706;18.216;2023-03-23T01:41:16;11.11;69.41
74224;SHT31;62585;49.706;18.216;2023-03-23T01:46:20;11.17;69.01
74224;SHT31;62585;49.706;18.216;2023-03-23T01:48:48;11.18;68.86
74224;SHT31;62585;49.706;18.216;2023-03-23T01:51:17;11.21;68.83
74224;SHT31;62585;49.706;18.216;2023-03-23T01:53:48;11.25;69.00
74224;SHT31;62585;49.706;18.216;2023-03-23T01:56:20;11.19;69.19
74224;SHT31;62585;49.706;18.216;2023-03-23T01:58:51;11.24;68.68
74224;SHT31;62585;49.706;18.216;2023-03-23T02:01:18;11.28;68.59
74224;SHT31;62585;49.706;18.216;2023-03-23T02:03:47;11.29;68.31
74224;SHT31;62585;49.706;18.216;2023-03-23T02:06:14;11.36;68.16
74224;SHT31;62585;49.706;18.216;2023-03-23T02:08:41;11.35;68.55
74224;SHT31;62585;49.706;18.216;2023-03-23T02:13:38;11.49;67.41
74224;SHT31;62585;49.706;18.216;2023-03-23T02:18:57;11.38;68.25
74224;SHT31;62585;49.706;18.216;2023-03-23T02:27:24;11.19;68.86
74224;SHT31;62585;49.706;18.216;2023-03-23T02:35:39;10.88;70.34
74224;SHT31;62585;49.706;18.216;2023-03-23T02:40:56;10.67;71.46
74224;SHT31;62585;49.706;18.216;2023-03-23T02:43:27;10.50;71.89
74224;SHT31;62585;49.706;18.216;2023-03-23T02:45:55;10.55;72.00
74224;SHT31;62585;49.706;18.216;2023-03-23T02:48:28;10.46;72.33
74224;SHT31;62585;49.706;18.216;2023-03-23T02:50:55;10.43;72.51
74224;SHT31;62585;49.706;18.216;2023-03-23T02:53:22;10.33;72.79
74224;SHT31;62585;49.706;18.216;2023-03-23T02:55:50;10.29;73.03
74224;SHT31;62585;49.706;18.216;2023-03-23T02:58:18;10.32;72.96
74224;SHT31;62585;49.706;18.216;2023-03-23T03:00:44;10.31;73.00
74224;SHT31;62585;49.706;18.216;2023-03-23T03:03:17;10.25;73.05
74224;SHT31;62585;49.706;18.216;2023-03-23T03:11:08;10.32;72.45
74224;SHT31;62585;49.706;18.216;2023-03-23T03:13:51;10.38;71.94
74224;SHT31;62585;49.706;18.216;2023-03-23T03:19:21;10.50;71.60
74224;SHT31;62585;49.706;18.216;2023-03-23T03:21:52;10.53;71.33
74224;SHT31;62585;49.706;18.216;2023-03-23T03:24:20;10.50;71.39
74224;SHT31;62585;49.706;18.216;2023-03-23T03:26:50;10.50;71.47
74224;SHT31;62585;49.706;18.216;2023-03-23T03:29:20;10.48;71.74
74224;SHT31;62585;49.706;18.216;2023-03-23T03:31:47;10.45;71.78
74224;SHT31;62585;49.706;18.216;2023-03-23T03:34:15;10.36;72.09
74224;SHT31;62585;49.706;18.216;2023-03-23T03:36:46;10.36;71.99
74224;SHT31;62585;49.706;18.216;2023-03-23T03:39:14;10.28;72.24
74224;SHT31;62585;49.706;18.216;2023-03-23T03:41:41;10.31;72.19
74224;SHT31;62585;49.706;18.216;2023-03-23T03:44:08;10.31;72.00
74224;SHT31;62585;49.706;18.216;2023-03-23T03:46:35;10.32;71.96
74224;SHT31;62585;49.706;18.216;2023-03-23T03:49:03;10.33;71.90
74224;SHT31;62585;49.706;18.216;2023-03-23T03:51:30;10.35;71.84
74224;SHT31;62585;49.706;18.216;2023-03-23T03:53:56;10.38;71.49
74224;SHT31;62585;49.706;18.216;2023-03-23T03:56:22;10.32;71.81
74224;SHT31;62585;49.706;18.216;2023-03-23T03:58:49;10.42;71.43
74224;SHT31;62585;49.706;18.216;2023-03-23T04:01:16;10.43;71.20
74224;SHT31;62585;49.706;18.216;2023-03-23T04:03:44;10.48;71.10
74224;SHT31;62585;49.706;18.216;2023-03-23T04:06:10;10.49;70.94
74224;SHT31;62585;49.706;18.216;2023-03-23T04:08:36;10.50;70.94
74224;SHT31;62585;49.706;18.216;2023-03-23T04:11:10;10.52;70.68
74224;SHT31;62585;49.706;18.216;2023-03-23T04:13:38;10.31;71.32
74224;SHT31;62585;49.706;18.216;2023-03-23T04:16:04;10.16;71.78
74224;SHT31;62585;49.706;18.216;2023-03-23T04:18:30;9.91;72.82
74224;SHT31;62585;49.706;18.216;2023-03-23T04:20:58;9.90;73.03
74224;SHT31;62585;49.706;18.216;2023-03-23T04:23:26;9.84;72.94
74224;SHT31;62585;49.706;18.216;2023-03-23T04:25:52;9.78;72.89
74224;SHT31;62585;49.706;18.216;2023-03-23T04:28:23;9.80;72.81
74224;SHT31;62585;49.706;18.216;2023-03-23T04:30:52;9.81;72.81
74224;SHT31;62585;49.706;18.216;2023-03-23T04:33:22;9.94;72.35
74224;SHT31;62585;49.706;18.216;2023-03-23T04:35:54;9.97;71.87
74224;SHT31;62585;49.706;18.216;2023-03-23T04:38:22;10.01;71.72
74224;SHT31;62585;49.706;18.216;2023-03-23T04:40:49;10.08;71.37
74224;SHT31;62585;49.706;18.216;2023-03-23T04:43:21;10.11;71.26
74224;SHT31;62585;49.706;18.216;2023-03-23T04:45:52;10.08;71.23
74224;SHT31;62585;49.706;18.216;2023-03-23T04:48:26;9.95;71.56
74224;SHT31;62585;49.706;18.216;2023-03-23T04:50:53;9.57;72.99
74224;SHT31;62585;49.706;18.216;2023-03-23T04:53:20;9.33;73.56
74224;SHT31;62585;49.706;18.216;2023-03-23T04:55:46;9.07;74.41
74224;SHT31;62585;49.706;18.216;2023-03-23T04:58:14;9.09;74.59
74224;SHT31;62585;49.706;18.216;2023-03-23T05:00:41;9.15;74.85
74224;SHT31;62585;49.706;18.216;2023-03-23T05:03:10;9.26;74.57
74224;SHT31;62585;49.706;18.216;2023-03-23T05:05:36;9.50;73.69
74224;SHT31;62585;49.706;18.216;2023-03-23T05:08:03;9.70;72.94
74224;SHT31;62585;49.706;18.216;2023-03-23T05:10:29;9.94;71.94
74224;SHT31;62585;49.706;18.216;2023-03-23T05:12:55;10.02;71.57
74224;SHT31;62585;49.706;18.216;2023-03-23T05:15:20;10.11;71.24
74224;SHT31;62585;49.706;18.216;2023-03-23T05:17:46;10.06;71.20
74224;SHT31;62585;49.706;18.216;2023-03-23T05:20:15;10.05;71.09
74224;SHT31;62585;49.706;18.216;2023-03-23T05:22:44;10.11;70.93
74224;SHT31;62585;49.706;18.216;2023-03-23T05:25:10;10.16;70.69
74224;SHT31;62585;49.706;18.216;2023-03-23T05:27:39;10.21;70.32
74224;SHT31;62585;49.706;18.216;2023-03-23T05:30:09;10.29;70.10
74224;SHT31;62585;49.706;18.216;2023-03-23T05:32:35;10.32;69.99
74224;SHT31;62585;49.706;18.216;2023-03-23T05:35:03;10.33;69.92
74224;SHT31;62585;49.706;18.216;2023-03-23T05:37:29;10.38;69.65
74224;SHT31;62585;49.706;18.216;2023-03-23T05:39:58;10.38;69.57
74224;SHT31;62585;49.706;18.216;2023-03-23T05:42:29;10.35;70.25
74224;SHT31;62585;49.706;18.216;2023-03-23T05:44:54;10.41;70.39
74224;SHT31;62585;49.706;18.216;2023-03-23T05:47:20;10.36;70.64
74224;SHT31;62585;49.706;18.216;2023-03-23T05:49:46;10.39;70.89
74224;SHT31;62585;49.706;18.216;2023-03-23T05:52:12;10.35;71.19
74224;SHT31;62585;49.706;18.216;2023-03-23T05:54:38;10.36;71.48
74224;SHT31;62585;49.706;18.216;2023-03-23T05:57:04;10.31;71.32
74224;SHT31;62585;49.706;18.216;2023-03-23T05:59:31;10.32;71.78
74224;SHT31;62585;49.706;18.216;2023-03-23T06:01:57;10.32;72.01
74224;SHT31;62585;49.706;18.216;2023-03-23T06:04:23;10.33;71.62
74224;SHT31;62585;49.706;18.216;2023-03-23T06:06:51;10.48;70.80
74224;SHT31;62585;49.706;18.216;2023-03-23T06:09:19;10.64;70.09
74224;SHT31;62585;49.706;18.216;2023-03-23T06:11:46;10.76;69.43
74224;SHT31;62585;49.706;18.216;2023-03-23T06:14:13;10.84;68.98
74224;SHT31;62585;49.706;18.216;2023-03-23T06:16:39;10.87;69.20
74224;SHT31;62585;49.706;18.216;2023-03-23T06:19:05;11.01;69.42
74224;SHT31;62585;49.706;18.216;2023-03-23T06:21:34;10.91;70.76
74224;SHT31;62585;49.706;18.216;2023-03-23T06:24:00;10.94;70.34
74224;SHT31;62585;49.706;18.216;2023-03-23T06:26:30;11.06;70.68
74224;SHT31;62585;49.706;18.216;2023-03-23T06:28:57;11.03;70.94
74224;SHT31;62585;49.706;18.216;2023-03-23T06:31:24;11.12;70.42
74224;SHT31;62585;49.706;18.216;2023-03-23T06:33:51;11.08;70.67
74224;SHT31;62585;49.706;18.216;2023-03-23T06:36:17;10.97;71.09
74224;SHT31;62585;49.706;18.216;2023-03-23T06:38:44;10.90;71.46
74224;SHT31;62585;49.706;18.216;2023-03-23T06:41:10;10.90;71.23
74224;SHT31;62585;49.706;18.216;2023-03-23T06:43:37;11.07;71.65
74224;SHT31;62585;49.706;18.216;2023-03-23T06:46:06;11.08;71.94
74224;SHT31;62585;49.706;18.216;2023-03-23T06:48:31;11.11;71.60
74224;SHT31;62585;49.706;18.216;2023-03-23T06:50:57;11.11;72.01
74224;SHT31;62585;49.706;18.216;2023-03-23T06:53:23;11.14;72.24
74224;SHT31;62585;49.706;18.216;2023-03-23T06:55:50;11.17;72.53
74224;SHT31;62585;49.706;18.216;2023-03-23T06:58:16;11.25;73.40
74224;SHT31;62585;49.706;18.216;2023-03-23T07:00:42;11.27;72.11
74224;SHT31;62585;49.706;18.216;2023-03-23T07:03:09;11.36;71.68
74224;SHT31;62585;49.706;18.216;2023-03-23T07:05:35;11.38;72.10
74224;SHT31;62585;49.706;18.216;2023-03-23T07:08:04;11.48;71.81
74224;SHT31;62585;49.706;18.216;2023-03-23T07:10:31;11.48;71.76
74224;SHT31;62585;49.706;18.216;2023-03-23T07:12:57;11.61;72.25
74224;SHT31;62585;49.706;18.216;2023-03-23T07:15:24;11.56;72.52
74224;SHT31;62585;49.706;18.216;2023-03-23T07:17:50;11.72;72.95
74224;SHT31;62585;49.706;18.216;2023-03-23T07:20:17;11.83;72.76
74224;SHT31;62585;49.706;18.216;2023-03-23T07:22:42;12.04;70.58
74224;SHT31;62585;49.706;18.216;2023-03-23T07:25:08;12.21;70.88
74224;SHT31;62585;49.706;18.216;2023-03-23T07:27:36;12.41;69.02
74224;SHT31;62585;49.706;18.216;2023-03-23T07:30:08;12.78;68.00
74224;SHT31;62585;49.706;18.216;2023-03-23T07:32:37;13.06;66.47
74224;SHT31;62585;49.706;18.216;2023-03-23T07:35:04;13.34;65.25
74224;SHT31;62585;49.706;18.216;2023-03-23T07:37:29;13.57;64.72
74224;SHT31;62585;49.706;18.216;2023-03-23T07:39:57;13.76;64.28
74224;SHT31;62585;49.706;18.216;2023-03-23T07:42:23;14.01;63.92
74224;SHT31;62585;49.706;18.216;2023-03-23T07:44:49;14.37;61.75
74224;SHT31;62585;49.706;18.216;2023-03-23T07:47:15;14.78;56.24
74224;SHT31;62585;49.706;18.216;2023-03-23T07:49:41;15.09;55.87
74224;SHT31;62585;49.706;18.216;2023-03-23T07:52:06;15.16;53.84
74224;SHT31;62585;49.706;18.216;2023-03-23T07:54:32;15.26;53.74
74224;SHT31;62585;49.706;18.216;2023-03-23T07:56:58;15.33;53.50
74224;SHT31;62585;49.706;18.216;2023-03-23T07:59:23;15.42;54.34
74224;SHT31;62585;49.706;18.216;2023-03-23T08:01:49;15.51;54.76
74224;SHT31;62585;49.706;18.216;2023-03-23T08:04:15;15.49;54.69
74224;SHT31;62585;49.706;18.216;2023-03-23T08:06:41;15.58;53.23
74224;SHT31;62585;49.706;18.216;2023-03-23T08:09:07;15.63;52.77
74224;SHT31;62585;49.706;18.216;2023-03-23T08:11:37;15.60;53.22
74224;SHT31;62585;49.706;18.216;2023-03-23T08:14:04;15.64;52.58
74224;SHT31;62585;49.706;18.216;2023-03-23T08:16:31;15.87;52.42
74224;SHT31;62585;49.706;18.216;2023-03-23T08:18:57;15.85;51.90
74224;SHT31;62585;49.706;18.216;2023-03-23T08:21:23;16.09;52.96
74224;SHT31;62585;49.706;18.216;2023-03-23T08:23:49;16.16;51.36
74224;SHT31;62585;49.706;18.216;2023-03-23T08:26:15;16.38;52.51
74224;SHT31;62585;49.706;18.216;2023-03-23T08:28:43;16.70;52.21
74224;SHT31;62585;49.706;18.216;2023-03-23T08:31:12;16.76;49.30
74224;SHT31;62585;49.706;18.216;2023-03-23T08:33:38;16.59;48.71
74224;SHT31;62585;49.706;18.216;2023-03-23T08:36:05;16.66;47.82
74224;SHT31;62585;49.706;18.216;2023-03-23T08:38:31;16.66;49.34
74224;SHT31;62585;49.706;18.216;2023-03-23T08:40:59;16.52;48.23
74224;SHT31;62585;49.706;18.216;2023-03-23T08:43:25;16.61;49.56
74224;SHT31;62585;49.706;18.216;2023-03-23T08:45:51;16.87;49.11
74224;SHT31;62585;49.706;18.216;2023-03-23T08:48:17;16.76;48.41
74224;SHT31;62585;49.706;18.216;2023-03-23T08:50:43;16.85;49.02
74224;SHT31;62585;49.706;18.216;2023-03-23T08:53:09;17.21;47.88
74224;SHT31;62585;49.706;18.216;2023-03-23T08:55:35;17.38;47.18
74224;SHT31;62585;49.706;18.216;2023-03-23T08:58:01;17.55;47.45
74224;SHT31;62585;49.706;18.216;2023-03-23T09:00:29;17.36;47.47
74224;SHT31;62585;49.706;18.216;2023-03-23T09:02:55;17.08;47.07
74224;SHT31;62585;49.706;18.216;2023-03-23T09:05:25;17.35;47.05
74224;SHT31;62585;49.706;18.216;2023-03-23T09:07:53;17.36;46.65
74224;SHT31;62585;49.706;18.216;2023-03-23T09:10:19;17.52;46.50
74224;SHT31;62585;49.706;18.216;2023-03-23T09:12:46;17.03;46.19
74224;SHT31;62585;49.706;18.216;2023-03-23T09:15:15;17.01;46.83
74224;SHT31;62585;49.706;18.216;2023-03-23T09:17:46;16.98;46.47
74224;SHT31;62585;49.706;18.216;2023-03-23T09:20:14;17.04;46.93
74224;SHT31;62585;49.706;18.216;2023-03-23T09:22:43;17.04;46.27
74224;SHT31;62585;49.706;18.216;2023-03-23T09:25:11;17.04;47.28
74224;SHT31;62585;49.706;18.216;2023-03-23T09:27:38;16.85;46.49
74224;SHT31;62585;49.706;18.216;2023-03-23T09:30:09;16.80;46.42
74224;SHT31;62585;49.706;18.216;2023-03-23T09:32:37;16.76;47.87
74224;SHT31;62585;49.706;18.216;2023-03-23T09:35:03;16.81;47.41
74224;SHT31;62585;49.706;18.216;2023-03-23T09:37:30;16.73;47.99
74224;SHT31;62585;49.706;18.216;2023-03-23T09:39:56;16.83;47.64
74224;SHT31;62585;49.706;18.216;2023-03-23T09:45:29;17.35;47.42
74224;SHT31;62585;49.706;18.216;2023-03-23T09:48:23;17.39;46.33
74224;SHT31;62585;49.706;18.216;2023-03-23T09:50:55;17.67;45.56
74224;SHT31;62585;49.706;18.216;2023-03-23T09:53:28;18.05;45.25
74224;SHT31;62585;49.706;18.216;2023-03-23T09:56:01;18.56;45.49
74224;SHT31;62585;49.706;18.216;2023-03-23T09:58:37;18.47;43.17
74224;SHT31;62585;49.706;18.216;2023-03-23T10:01:55;18.10;43.09
74224;SHT31;62585;49.706;18.216;2023-03-23T10:04:21;18.00;43.93
74224;SHT31;62585;49.706;18.216;2023-03-23T10:06:49;17.97;42.41
74224;SHT31;62585;49.706;18.216;2023-03-23T10:09:17;17.90;43.26
74224;SHT31;62585;49.706;18.216;2023-03-23T10:11:56;17.66;43.76
74224;SHT31;62585;49.706;18.216;2023-03-23T10:17:03;17.70;43.36
74224;SHT31;62585;49.706;18.216;2023-03-23T10:19:41;17.70;44.40
74224;SHT31;62585;49.706;18.216;2023-03-23T10:22:14;17.79;44.21
74224;SHT31;62585;49.706;18.216;2023-03-23T10:24:51;17.56;43.30
74224;SHT31;62585;49.706;18.216;2023-03-23T10:27:42;17.70;43.09
74224;SHT31;62585;49.706;18.216;2023-03-23T10:32:50;17.48;43.23
74224;SHT31;62585;49.706;18.216;2023-03-23T10:35:35;17.63;43.89
74224;SHT31;62585;49.706;18.216;2023-03-23T10:38:11;17.66;43.44
74224;SHT31;62585;49.706;18.216;2023-03-23T10:40:48;17.91;43.74
74224;SHT31;62585;49.706;18.216;2023-03-23T10:43:15;18.01;43.70
74224;SHT31;62585;49.706;18.216;2023-03-23T10:45:44;18.23;44.56
74224;SHT31;62585;49.706;18.216;2023-03-23T10:48:15;18.35;43.02
74224;SHT31;62585;49.706;18.216;2023-03-23T10:50:47;18.34;43.18
74224;SHT31;62585;49.706;18.216;2023-03-23T10:53:21;18.25;42.84
74224;SHT31;62585;49.706;18.216;2023-03-23T10:55:57;18.44;42.99
74224;SHT31;62585;49.706;18.216;2023-03-23T10:58:33;18.49;42.67
74224;SHT31;62585;49.706;18.216;2023-03-23T11:01:02;18.38;42.28
74224;SHT31;62585;49.706;18.216;2023-03-23T11:06:08;18.58;42.36
74224;SHT31;62585;49.706;18.216;2023-03-23T11:08:56;18.76;41.80
74224;SHT31;62585;49.706;18.216;2023-03-23T11:11:32;18.92;40.81
74224;SHT31;62585;49.706;18.216;2023-03-23T11:14:26;18.92;41.06
74224;SHT31;62585;49.706;18.216;2023-03-23T11:17:00;18.95;41.94
74224;SHT31;62585;49.706;18.216;2023-03-23T11:19:31;18.90;41.47
74224;SHT31;62585;49.706;18.216;2023-03-23T11:22:08;18.77;41.88
74224;SHT31;62585;49.706;18.216;2023-03-23T11:24:43;18.70;41.65
74224;SHT31;62585;49.706;18.216;2023-03-23T11:27:10;18.75;42.12
74224;SHT31;62585;49.706;18.216;2023-03-23T11:32:26;18.53;42.91
74224;SHT31;62585;49.706;18.216;2023-03-23T11:35:00;18.32;41.31
74224;SHT31;62585;49.706;18.216;2023-03-23T11:37:34;18.38;42.63
74224;SHT31;62585;49.706;18.216;2023-03-23T11:42:46;18.31;42.17
74224;SHT31;62585;49.706;18.216;2023-03-23T11:45:19;18.47;41.37
74224;SHT31;62585;49.706;18.216;2023-03-23T11:47:56;18.69;41.64
74224;SHT31;62585;49.706;18.216;2023-03-23T11:50:28;18.92;40.93
74224;SHT31;62585;49.706;18.216;2023-03-23T11:58:12;19.99;40.50
74224;SHT31;62585;49.706;18.216;2023-03-23T12:01:05;20.40;38.68
74224;SHT31;62585;49.706;18.216;2023-03-23T12:04:19;20.22;38.04
74224;SHT31;62585;49.706;18.216;2023-03-23T12:06:52;20.37;37.84
74224;SHT31;62585;49.706;18.216;2023-03-23T12:09:27;20.51;37.02
74224;SHT31;62585;49.706;18.216;2023-03-23T12:12:32;20.10;37.54
74224;SHT31;62585;49.706;18.216;2023-03-23T12:15:29;19.85;39.43
74224;SHT31;62585;49.706;18.216;2023-03-23T12:23:25;19.37;39.52
74224;SHT31;62585;49.706;18.216;2023-03-23T12:44:12;19.21;39.61
74224;SHT31;62585;49.706;18.216;2023-03-23T12:47:23;19.26;39.27
74224;SHT31;62585;49.706;18.216;2023-03-23T12:50:13;19.34;39.25
74224;SHT31;62585;49.706;18.216;2023-03-23T12:53:03;19.30;39.58
74224;SHT31;62585;49.706;18.216;2023-03-23T12:55:38;19.23;39.19
74224;SHT31;62585;49.706;18.216;2023-03-23T12:58:26;19.11;39.00
74224;SHT31;62585;49.706;18.216;2023-03-23T13:01:36;19.23;39.11
74224;SHT31;62585;49.706;18.216;2023-03-23T13:04:20;19.17;39.36
74224;SHT31;62585;49.706;18.216;2023-03-23T13:07:05;19.26;39.32
74224;SHT31;62585;49.706;18.216;2023-03-23T13:10:00;19.18;39.76
74224;SHT31;62585;49.706;18.216;2023-03-23T13:13:02;19.04;40.02
74224;SHT31;62585;49.706;18.216;2023-03-23T13:19:31;19.09;40.20
74224;SHT31;62585;49.706;18.216;2023-03-23T13:22:18;19.03;39.53
74224;SHT31;62585;49.706;18.216;2023-03-23T13:25:29;19.02;39.75
74224;SHT31;62585;49.706;18.216;2023-03-23T13:28:30;19.17;40.01
74224;SHT31;62585;49.706;18.216;2023-03-23T13:31:15;19.26;39.33
74224;SHT31;62585;49.706;18.216;2023-03-23T13:33:52;19.34;39.76
74224;SHT31;62585;49.706;18.216;2023-03-23T13:36:38;19.26;39.64
74224;SHT31;62585;49.706;18.216;2023-03-23T13:39:06;19.23;39.24
74224;SHT31;62585;49.706;18.216;2023-03-23T13:41:47;19.20;39.83
74224;SHT31;62585;49.706;18.216;2023-03-23T13:44:23;19.31;40.13
74224;SHT31;62585;49.706;18.216;2023-03-23T13:46:57;19.35;39.85
74224;SHT31;62585;49.706;18.216;2023-03-23T13:49:31;19.20;39.01
74224;SHT31;62585;49.706;18.216;2023-03-23T13:52:14;19.30;39.33
74224;SHT31;62585;49.706;18.216;2023-03-23T13:54:44;19.24;39.61
74224;SHT31;62585;49.706;18.216;2023-03-23T13:59:59;19.10;39.84
74224;SHT31;62585;49.706;18.216;2023-03-23T14:02:33;19.07;39.15
74224;SHT31;62585;49.706;18.216;2023-03-23T14:10:22;19.03;39.39
74224;SHT31;62585;49.706;18.216;2023-03-23T14:12:50;19.06;39.12
74224;SHT31;62585;49.706;18.216;2023-03-23T14:15:18;19.14;39.31
74224;SHT31;62585;49.706;18.216;2023-03-23T14:17:44;19.14;39.40
74224;SHT31;62585;49.706;18.216;2023-03-23T14:20:40;19.39;39.69
74224;SHT31;62585;49.706;18.216;2023-03-23T14:23:15;19.53;39.08
74224;SHT31;62585;49.706;18.216;2023-03-23T14:25:41;19.48;38.98
74224;SHT31;62585;49.706;18.216;2023-03-23T14:28:17;19.41;39.04
74224;SHT31;62585;49.706;18.216;2023-03-23T14:30:43;19.38;38.42
74224;SHT31;62585;49.706;18.216;2023-03-23T14:33:10;19.39;38.56
74224;SHT31;62585;49.706;18.216;2023-03-23T14:35:41;19.37;38.14
74224;SHT31;62585;49.706;18.216;2023-03-23T14:38:16;19.32;38.11
74224;SHT31;62585;49.706;18.216;2023-03-23T14:40:44;19.38;38.06
74224;SHT31;62585;49.706;18.216;2023-03-23T14:43:11;19.37;38.89
74224;SHT31;62585;49.706;18.216;2023-03-23T14:45:39;19.34;38.48
74224;SHT31;62585;49.706;18.216;2023-03-23T14:48:05;19.31;38.73
74224;SHT31;62585;49.706;18.216;2023-03-23T14:50:41;19.34;39.54
74224;SHT31;62585;49.706;18.216;2023-03-23T14:55:47;19.30;40.07
74224;SHT31;62585;49.706;18.216;2023-03-23T14:58:16;19.27;39.46
74224;SHT31;62585;49.706;18.216;2023-03-23T15:01:05;19.32;39.46
74224;SHT31;62585;49.706;18.216;2023-03-23T15:03:39;19.24;39.38
74224;SHT31;62585;49.706;18.216;2023-03-23T15:06:13;19.17;40.14
74224;SHT31;62585;49.706;18.216;2023-03-23T15:08:40;19.17;39.95
74224;SHT31;62585;49.706;18.216;2023-03-23T15:13:53;19.17;39.37
74224;SHT31;62585;49.706;18.216;2023-03-23T15:16:27;19.21;40.01
74224;SHT31;62585;49.706;18.216;2023-03-23T15:19:05;19.16;40.50
74224;SHT31;62585;49.706;18.216;2023-03-23T15:21:45;19.04;40.82
74224;SHT31;62585;49.706;18.216;2023-03-23T15:26:51;19.03;41.22
74224;SHT31;62585;49.706;18.216;2023-03-23T15:29:19;18.96;41.09
74224;SHT31;62585;49.706;18.216;2023-03-23T15:31:51;18.96;41.52
74224;SHT31;62585;49.706;18.216;2023-03-23T15:34:36;18.92;41.47
74224;SHT31;62585;49.706;18.216;2023-03-23T15:39:45;19.00;41.29
74224;SHT31;62585;49.706;18.216;2023-03-23T15:42:24;18.99;41.29
74224;SHT31;62585;49.706;18.216;2023-03-23T15:47:22;18.90;41.16
74224;SHT31;62585;49.706;18.216;2023-03-23T15:50:04;18.82;41.83
74224;SHT31;62585;49.706;18.216;2023-03-23T15:52:30;18.82;40.98
74224;SHT31;62585;49.706;18.216;2023-03-23T15:54:56;18.86;40.87
74224;SHT31;62585;49.706;18.216;2023-03-23T15:57:22;18.89;40.84
74224;SHT31;62585;49.706;18.216;2023-03-23T15:59:47;18.92;40.44
74224;SHT31;62585;49.706;18.216;2023-03-23T16:02:20;18.85;40.73
74224;SHT31;62585;49.706;18.216;2023-03-23T16:04:48;18.83;40.27
74224;SHT31;62585;49.706;18.216;2023-03-23T16:07:14;18.90;39.84
74224;SHT31;62585;49.706;18.216;2023-03-23T16:09:40;18.89;39.63
74224;SHT31;62585;49.706;18.216;2023-03-23T16:12:13;18.85;39.78
74224;SHT31;62585;49.706;18.216;2023-03-23T16:14:39;18.90;39.85
74224;SHT31;62585;49.706;18.216;2023-03-23T16:17:10;18.86;39.81
74224;SHT31;62585;49.706;18.216;2023-03-23T16:19:38;18.93;39.61
74224;SHT31;62585;49.706;18.216;2023-03-23T16:22:04;18.92;39.07
74224;SHT31;62585;49.706;18.216;2023-03-23T16:24:29;18.82;39.92
74224;SHT31;62585;49.706;18.216;2023-03-23T16:26:55;18.77;39.85
74224;SHT31;62585;49.706;18.216;2023-03-23T16:29:21;18.70;40.15
74224;SHT31;62585;49.706;18.216;2023-03-23T16:31:47;18.63;40.16
74224;SHT31;62585;49.706;18.216;2023-03-23T16:34:12;18.62;40.50
74224;SHT31;62585;49.706;18.216;2023-03-23T16:36:38;18.56;41.46
74224;SHT31;62585;49.706;18.216;2023-03-23T16:39:04;18.38;43.78
74224;SHT31;62585;49.706;18.216;2023-03-23T16:41:30;18.25;45.13
74224;SHT31;62585;49.706;18.216;2023-03-23T16:43:55;18.21;45.43
74224;SHT31;62585;49.706;18.216;2023-03-23T16:46:21;18.17;45.99
74224;SHT31;62585;49.706;18.216;2023-03-23T16:48:47;18.10;46.02
74224;SHT31;62585;49.706;18.216;2023-03-23T16:51:13;18.04;46.33
74224;SHT31;62585;49.706;18.216;2023-03-23T16:53:39;17.87;46.84
74224;SHT31;62585;49.706;18.216;2023-03-23T16:56:04;17.83;47.01
74224;SHT31;62585;49.706;18.216;2023-03-23T16:58:31;17.76;47.52
74224;SHT31;62585;49.706;18.216;2023-03-23T17:00:57;17.76;47.25
74224;SHT31;62585;49.706;18.216;2023-03-23T17:03:22;17.69;47.46
74224;SHT31;62585;49.706;18.216;2023-03-23T17:05:49;17.61;48.02
74224;SHT31;62585;49.706;18.216;2023-03-23T17:08:16;17.52;48.06
74224;SHT31;62585;49.706;18.216;2023-03-23T17:10:43;17.39;48.43
74224;SHT31;62585;49.706;18.216;2023-03-23T17:13:09;17.35;48.57
74224;SHT31;62585;49.706;18.216;2023-03-23T17:15:37;17.29;48.73
74224;SHT31;62585;49.706;18.216;2023-03-23T17:18:04;17.22;48.95